createdAt,value
2022-08-01T00:00:24.025Z,7.05
2022-08-01T00:02:54.402Z,5.97
2022-08-01T00:05:24.789Z,4.30
2022-08-01T00:07:55.158Z,8.77
2022-08-01T00:10:25.661Z,6.40
2022-08-01T00:12:56.038Z,7.05
2022-08-01T00:15:26.446Z,5.20
2022-08-01T00:17:57.654Z,5.78
2022-08-01T00:20:28.310Z,7.80
2022-08-01T00:22:58.669Z,5.75
2022-08-01T00:25:34.344Z,5.88
2022-08-01T00:28:05.739Z,8.32
2022-08-01T00:30:36.292Z,4.80
2022-08-01T00:33:06.941Z,6.10
2022-08-01T00:35:37.489Z,5.47
2022-08-01T00:38:08.054Z,6.35
2022-08-01T00:40:38.493Z,7.43
2022-08-01T00:43:08.813Z,10.10
2022-08-01T00:45:39.204Z,6.88
2022-08-01T00:48:09.674Z,7.13
2022-08-01T00:50:40.154Z,7.88
2022-08-01T00:53:10.695Z,8.43
2022-08-01T00:55:51.524Z,11.45
2022-08-01T00:58:22.008Z,11.40
2022-08-01T01:00:54.911Z,8.23
2022-08-01T01:03:56.347Z,8.57
2022-08-01T01:06:31.605Z,10.57
2022-08-01T01:09:23.460Z,9.27
2022-08-01T01:12:06.759Z,12.90
2022-08-01T01:14:49.217Z,7.85
2022-08-01T01:17:49.795Z,10.60
2022-08-01T01:20:17.489Z,10.63
2022-08-01T01:23:19.588Z,10.85
2022-08-01T01:26:09.128Z,10.13
2022-08-01T01:29:00.523Z,13.88
2022-08-01T01:31:32.818Z,9.77
2022-08-01T01:34:05.913Z,10.10
2022-08-01T01:36:37.369Z,12.15
2022-08-01T01:39:08.196Z,9.07
2022-08-01T01:41:41.232Z,8.55
2022-08-01T01:44:14.174Z,10.48
2022-08-01T01:46:45.692Z,7.80
2022-08-01T01:49:16.414Z,7.65
2022-08-01T01:51:49.426Z,5.47
2022-08-01T01:54:38.934Z,8.07
2022-08-01T01:57:13.914Z,6.03
2022-08-01T01:59:48.315Z,7.75
2022-08-01T02:02:19.996Z,10.52
2022-08-01T02:04:51.756Z,8.88
2022-08-01T02:07:27.511Z,7.78
2022-08-01T02:09:59.912Z,9.70
2022-08-01T02:12:31.660Z,5.90
2022-08-01T02:15:03.423Z,9.35
2022-08-01T02:17:34.667Z,9.07
2022-08-01T02:20:05.820Z,12.32
2022-08-01T02:22:43.441Z,9.95
2022-08-01T02:25:29.602Z,10.13
2022-08-01T02:28:12.705Z,8.23
2022-08-01T02:30:49.723Z,9.95
2022-08-01T02:33:24.115Z,11.15
2022-08-01T02:36:30.961Z,13.10
2022-08-01T02:38:52.440Z,9.45
2022-08-01T02:41:27.216Z,12.68
2022-08-01T02:44:03.157Z,11.13
2022-08-01T02:46:40.360Z,10.10
2022-08-01T02:49:13.674Z,12.80
2022-08-01T02:51:47.116Z,11.48
2022-08-01T02:54:19.620Z,11.45
2022-08-01T02:56:53.785Z,10.80
2022-08-01T02:59:28.822Z,13.45
2022-08-01T03:02:03.125Z,12.27
2022-08-01T03:04:36.867Z,14.48
2022-08-01T03:07:10.073Z,14.73
2022-08-01T03:09:41.795Z,10.75
2022-08-01T03:12:15.925Z,11.43
2022-08-01T03:14:47.543Z,15.52
2022-08-01T03:17:19.412Z,12.70
2022-08-01T03:19:51.003Z,15.30
2022-08-01T03:22:22.772Z,15.23
2022-08-01T03:24:55.148Z,13.60
2022-08-01T03:27:27.481Z,18.33
2022-08-01T03:29:59.824Z,15.88
2022-08-01T03:32:31.502Z,20.17
2022-08-01T03:35:02.239Z,17.38
2022-08-01T03:37:37.728Z,19.48
2022-08-01T03:40:13.777Z,21.00
2022-08-01T03:42:48.758Z,21.85
2022-08-01T03:45:27.701Z,20.75
2022-08-01T03:48:03.895Z,20.00
2022-08-01T03:50:36.899Z,21.35
2022-08-01T03:53:08.260Z,19.95
2022-08-01T03:55:40.417Z,24.00
2022-08-01T03:58:12.250Z,24.90
2022-08-01T04:00:42.839Z,22.08
2022-08-01T04:03:14.185Z,25.10
2022-08-01T04:05:46.970Z,23.30
2022-08-01T04:08:17.329Z,27.73
2022-08-01T04:10:47.577Z,24.90
2022-08-01T04:13:20.761Z,24.20
2022-08-01T04:15:51.449Z,19.80
2022-08-01T04:18:21.686Z,20.75
2022-08-01T04:20:51.989Z,19.17
2022-08-01T04:23:25.187Z,12.98
2022-08-01T04:25:56.051Z,17.02
2022-08-01T04:28:26.535Z,14.30
2022-08-01T04:31:02.053Z,15.85
2022-08-01T04:33:34.322Z,14.82
2022-08-01T04:36:06.548Z,13.68
2022-08-01T04:38:39.819Z,11.50
2022-08-01T04:41:11.430Z,7.72
2022-08-01T04:43:44.184Z,9.20
2022-08-01T04:46:15.498Z,12.20
2022-08-01T04:48:46.277Z,11.32
2022-08-01T04:51:23.093Z,18.10
2022-08-01T04:53:54.639Z,28.30
2022-08-01T04:56:25.143Z,35.83
2022-08-01T04:59:19.552Z,27.30
2022-08-01T05:01:55.126Z,25.63
2022-08-01T05:04:25.368Z,29.58
2022-08-01T05:06:55.594Z,31.67
2022-08-01T05:09:30.765Z,29.58
2022-08-01T05:12:02.122Z,29.65
2022-08-01T05:14:35.234Z,31.15
2022-08-01T05:17:06.958Z,25.17
2022-08-01T05:19:38.453Z,15.80
2022-08-01T05:22:10.085Z,10.55
2022-08-01T05:24:41.307Z,9.48
2022-08-01T05:27:13.569Z,8.52
2022-08-01T05:29:46.389Z,9.85
2022-08-01T05:32:16.657Z,9.93
2022-08-01T05:34:47.305Z,9.77
2022-08-01T05:37:17.637Z,12.23
2022-08-01T05:39:47.942Z,14.68
2022-08-01T05:42:18.556Z,8.57
2022-08-01T05:44:49.285Z,7.10
2022-08-01T05:47:19.588Z,6.47
2022-08-01T05:49:50.354Z,7.97
2022-08-01T05:52:20.599Z,7.38
2022-08-01T05:54:51.646Z,7.65
2022-08-01T05:57:22.783Z,7.45
2022-08-01T05:59:53.348Z,6.07
2022-08-01T06:02:24.052Z,7.32
2022-08-01T06:04:54.248Z,5.35
2022-08-01T06:07:25.264Z,7.43
2022-08-01T06:09:56.627Z,10.32
2022-08-01T06:12:27.184Z,5.78
2022-08-01T06:14:59.300Z,5.35
2022-08-01T06:17:30.229Z,5.82
2022-08-01T06:20:00.668Z,5.85
2022-08-01T06:22:31.070Z,5.05
2022-08-01T06:25:02.106Z,7.15
2022-08-01T06:27:33.072Z,5.15
2022-08-01T06:30:03.555Z,11.27
2022-08-01T06:32:34.292Z,5.68
2022-08-01T06:35:04.516Z,4.38
2022-08-01T06:37:35.614Z,4.38
2022-08-01T06:40:13.375Z,3.90
2022-08-01T06:42:48.669Z,6.45
2022-08-01T06:45:18.980Z,6.93
2022-08-01T06:47:52.414Z,12.63
2022-08-01T06:50:22.995Z,6.05
2022-08-01T06:52:53.203Z,7.80
2022-08-01T06:55:23.492Z,5.18
2022-08-01T06:57:56.272Z,5.38
2022-08-01T07:00:27.391Z,4.22
2022-08-01T07:02:58.721Z,5.45
2022-08-01T07:05:29.413Z,4.00
2022-08-01T07:07:59.787Z,3.75
